createdAt,value
2023-01-06T00:01:19.852Z,79.93
2023-01-06T00:03:54.635Z,79.05
2023-01-06T00:06:27.879Z,79.09
2023-01-06T00:08:56.238Z,78.05
2023-01-06T00:11:24.055Z,78.96
2023-01-06T00:13:51.044Z,78.05
2023-01-06T00:16:20.599Z,78.44
2023-01-06T00:18:48.083Z,78.35
2023-01-06T00:21:15.833Z,78.80
2023-01-06T00:23:43.146Z,78.63
2023-01-06T00:26:11.091Z,78.96
2023-01-06T00:28:39.937Z,78.74
2023-01-06T00:31:12.082Z,78.43
2023-01-06T00:33:39.179Z,78.77
2023-01-06T00:36:08.854Z,79.01
2023-01-06T00:38:39.467Z,78.78
2023-01-06T00:41:30.412Z,79.40
2023-01-06T00:43:58.842Z,78.47
2023-01-06T00:46:29.312Z,78.05
2023-01-06T00:49:06.053Z,78.37
2023-01-06T00:51:38.575Z,77.99
2023-01-06T00:54:08.006Z,77.84
2023-01-06T00:56:39.364Z,77.93
2023-01-06T00:59:07.500Z,77.54
2023-01-06T01:01:35.799Z,78.37
2023-01-06T01:04:05.641Z,77.70
2023-01-06T01:06:32.930Z,77.70
2023-01-06T01:09:00.895Z,78.37
2023-01-06T01:11:47.137Z,78.51
2023-01-06T01:14:16.320Z,78.08
2023-01-06T01:16:43.249Z,78.04
2023-01-06T01:19:11.597Z,78.28
2023-01-06T01:21:38.890Z,78.37
2023-01-06T01:24:06.557Z,78.17
2023-01-06T01:26:33.611Z,79.11
2023-01-06T01:29:01.254Z,78.54
2023-01-06T01:31:28.224Z,78.10
2023-01-06T01:33:55.112Z,79.11
2023-01-06T01:36:22.175Z,77.84
2023-01-06T01:38:49.214Z,79.15
2023-01-06T01:41:18.568Z,78.10
2023-01-06T01:43:47.449Z,78.39
2023-01-06T01:46:21.662Z,79.67
2023-01-06T01:48:49.475Z,78.65
2023-01-06T01:51:20.952Z,79.03
2023-01-06T01:53:53.609Z,80.10
2023-01-06T01:56:25.811Z,79.69
2023-01-06T01:58:59.842Z,80.77
2023-01-06T02:01:27.320Z,80.29
2023-01-06T02:03:54.728Z,80.66
2023-01-06T02:06:24.957Z,80.27
2023-01-06T02:09:17.613Z,80.65
2023-01-06T02:12:00.950Z,80.70
2023-01-06T02:14:50.359Z,80.10
2023-01-06T02:17:56.536Z,80.38
2023-01-06T02:20:58.921Z,80.66
2023-01-06T02:23:48.353Z,80.78
2023-01-06T02:26:48.829Z,80.77
2023-01-06T02:29:15.704Z,81.10
2023-01-06T02:32:03.666Z,81.59
2023-01-06T02:34:55.955Z,82.20
2023-01-06T02:37:36.612Z,82.26
2023-01-06T02:40:29.388Z,82.14
2023-01-06T02:43:22.297Z,81.97
2023-01-06T02:46:23.197Z,83.14
2023-01-06T02:49:07.762Z,82.62
2023-01-06T02:51:55.478Z,83.32
2023-01-06T02:54:52.501Z,82.71
2023-01-06T02:57:34.609Z,82.78
2023-01-06T03:00:24.275Z,83.06
2023-01-06T03:02:58.464Z,83.07
2023-01-06T03:05:26.498Z,83.32
2023-01-06T03:07:55.570Z,84.41
2023-01-06T03:10:25.702Z,83.85
2023-01-06T03:13:09.444Z,84.07
2023-01-06T03:15:36.757Z,84.09
2023-01-06T03:18:04.812Z,83.65
2023-01-06T03:20:31.837Z,83.67
2023-01-06T03:22:58.814Z,84.12
2023-01-06T03:25:25.906Z,83.55
2023-01-06T03:27:52.820Z,83.69
2023-01-06T03:30:20.032Z,83.41
2023-01-06T03:33:01.640Z,84.39
2023-01-06T03:35:52.453Z,84.46
2023-01-06T03:38:36.392Z,83.78
2023-01-06T03:41:49.319Z,83.75
2023-01-06T03:44:37.581Z,83.42
2023-01-06T03:47:16.839Z,83.93
2023-01-06T03:49:57.463Z,84.24
2023-01-06T03:52:31.115Z,84.05
2023-01-06T03:55:05.643Z,84.47
2023-01-06T03:57:39.264Z,83.39
2023-01-06T04:00:11.375Z,84.45
2023-01-06T04:02:41.075Z,83.94
2023-01-06T04:05:20.412Z,83.96
2023-01-06T04:07:48.336Z,84.35
2023-01-06T04:10:18.348Z,84.11
2023-01-06T04:12:45.879Z,84.72
2023-01-06T04:15:17.131Z,84.21
2023-01-06T04:17:45.082Z,84.53
2023-01-06T04:20:15.966Z,83.86
2023-01-06T04:22:42.992Z,84.34
2023-01-06T04:25:10.468Z,84.38
2023-01-06T04:27:37.612Z,85.21
2023-01-06T04:30:06.071Z,84.74
2023-01-06T04:32:33.317Z,85.34
2023-01-06T04:35:00.260Z,85.66
2023-01-06T04:37:27.240Z,84.65
2023-01-06T04:39:54.133Z,84.67
2023-01-06T04:42:21.086Z,84.55
2023-01-06T04:44:48.940Z,85.50
2023-01-06T04:47:15.885Z,85.04
2023-01-06T04:49:42.814Z,84.47
2023-01-06T04:52:09.737Z,83.85
2023-01-06T04:54:38.873Z,83.71
2023-01-06T04:57:05.797Z,82.89
2023-01-06T04:59:32.757Z,82.92
2023-01-06T05:01:59.695Z,83.21
2023-01-06T05:04:28.470Z,83.41
2023-01-06T05:06:57.068Z,82.95
2023-01-06T05:09:23.923Z,83.32
2023-01-06T05:11:50.880Z,83.21
2023-01-06T05:14:21.316Z,83.03
2023-01-06T05:16:48.491Z,82.87
2023-01-06T05:19:18.280Z,82.65
2023-01-06T05:21:45.182Z,82.70
2023-01-06T05:24:12.224Z,82.29
2023-01-06T05:26:39.170Z,82.88
2023-01-06T05:29:06.050Z,82.77
2023-01-06T05:31:33.071Z,82.54
2023-01-06T05:34:00.007Z,83.38
2023-01-06T05:36:26.934Z,82.50
2023-01-06T05:38:54.901Z,82.52
2023-01-06T05:41:22.072Z,83.40
2023-01-06T05:43:48.952Z,83.36
2023-01-06T05:46:15.962Z,83.47
2023-01-06T05:48:42.942Z,83.27
2023-01-06T05:51:13.867Z,83.57
2023-01-06T05:53:42.812Z,83.53
2023-01-06T05:56:12.477Z,83.05
2023-01-06T05:58:43.079Z,83.05
2023-01-06T06:01:20.153Z,83.27
2023-01-06T06:03:47.434Z,83.64
2023-01-06T06:06:14.712Z,83.46
2023-01-06T06:08:41.938Z,82.97
2023-01-06T06:11:11.546Z,82.67
2023-01-06T06:13:39.217Z,82.69
2023-01-06T06:16:16.478Z,83.20
2023-01-06T06:18:46.588Z,82.84
2023-01-06T06:21:16.335Z,83.12
2023-01-06T06:23:43.706Z,83.52
2023-01-06T06:26:13.069Z,83.07
2023-01-06T06:28:40.766Z,82.92
2023-01-06T06:31:18.364Z,82.43
2023-01-06T06:33:45.335Z,83.63
2023-01-06T06:36:16.143Z,82.74
2023-01-06T06:38:47.840Z,83.12
2023-01-06T06:41:15.182Z,83.25
2023-01-06T06:43:42.501Z,84.17
2023-01-06T06:46:10.051Z,84.09
2023-01-06T06:48:37.607Z,84.57
2023-01-06T06:51:08.623Z,84.25
2023-01-06T06:53:37.032Z,84.37
2023-01-06T06:56:07.742Z,85.20
2023-01-06T06:58:35.718Z,85.09
2023-01-06T07:01:10.637Z,85.31
2023-01-06T07:03:39.056Z,85.50
2023-01-06T07:06:09.035Z,86.02
2023-01-06T07:08:36.191Z,86.01
2023-01-06T07:11:03.453Z,86.03
2023-01-06T07:13:30.365Z,86.03
2023-01-06T07:15:57.290Z,86.33
2023-01-06T07:18:24.289Z,86.58
2023-01-06T07:20:53.826Z,86.14
2023-01-06T07:23:22.403Z,86.17
2023-01-06T07:25:57.910Z,86.26
2023-01-06T07:28:25.904Z,86.46
2023-01-06T07:30:53.374Z,85.90
2023-01-06T07:33:21.632Z,85.78
2023-01-06T07:35:53.337Z,85.50
2023-01-06T07:38:21.177Z,85.54
2023-01-06T07:40:48.430Z,85.65
2023-01-06T07:43:15.512Z,85.54
2023-01-06T07:45:42.404Z,85.76
2023-01-06T07:48:10.080Z,85.54
2023-01-06T07:50:36.976Z,85.59
2023-01-06T07:53:04.414Z,84.34
2023-01-06T07:55:31.516Z,84.43
2023-01-06T07:58:01.737Z,85.25
2023-01-06T08:00:28.707Z,84.65
2023-01-06T08:02:56.282Z,84.98
2023-01-06T08:05:23.301Z,84.38
2023-01-06T08:07:50.265Z,84.97
2023-01-06T08:10:17.161Z,84.95
2023-01-06T08:12:44.047Z,83.58
2023-01-06T08:15:11.690Z,83.75
2023-01-06T08:17:38.654Z,83.40
2023-01-06T08:20:06.348Z,83.41
2023-01-06T08:22:33.610Z,83.38
2023-01-06T08:25:02.015Z,83.33
2023-01-06T08:27:30.817Z,82.69
2023-01-06T08:29:59.783Z,82.33
2023-01-06T08:32:30.329Z,81.01
2023-01-06T08:34:59.823Z,81.24
2023-01-06T08:37:29.254Z,81.20
2023-01-06T08:40:00.561Z,80.93
2023-01-06T08:42:29.553Z,81.00
2023-01-06T08:45:01.386Z,80.51
2023-01-06T08:47:29.079Z,80.27
2023-01-06T08:49:56.232Z,79.77
2023-01-06T08:52:23.823Z,79.03
2023-01-06T08:54:52.616Z,80.09
2023-01-06T08:57:20.500Z,78.79
2023-01-06T08:59:47.725Z,78.14
2023-01-06T09:02:15.745Z,78.10
2023-01-06T09:04:44.346Z,77.27
2023-01-06T09:07:11.414Z,76.56
2023-01-06T09:09:38.343Z,76.92
2023-01-06T09:12:07.473Z,75.93
2023-01-06T09:14:35.008Z,76.35
2023-01-06T09:17:01.910Z,76.68
2023-01-06T09:19:28.906Z,76.26
2023-01-06T09:21:55.768Z,76.86
2023-01-06T09:24:23.333Z,76.19
2023-01-06T09:26:50.275Z,75.99
2023-01-06T09:29:18.190Z,76.63
2023-01-06T09:31:46.135Z,76.34
2023-01-06T09:34:13.265Z,75.87
2023-01-06T09:36:40.160Z,75.10
2023-01-06T09:39:07.888Z,75.35
2023-01-06T09:41:40.987Z,75.71
2023-01-06T09:44:23.890Z,75.17
2023-01-06T09:46:52.472Z,76.22
2023-01-06T09:49:26.116Z,75.37
2023-01-06T09:51:58.298Z,75.68
2023-01-06T09:54:36.758Z,74.72
2023-01-06T09:57:10.959Z,75.07
2023-01-06T09:59:52.971Z,73.65
2023-01-06T10:02:46.372Z,72.39
2023-01-06T10:06:07.776Z,73.24
2023-01-06T10:09:11.839Z,71.86
2023-01-06T10:12:00.286Z,72.88
2023-01-06T10:14:39.453Z,71.82
2023-01-06T10:17:47.741Z,72.00
2023-01-06T10:20:37.342Z,72.58
2023-01-06T10:23:28.630Z,72.93
2023-01-06T10:26:02.382Z,72.88
2023-01-06T10:28:36.086Z,73.08
2023-01-06T10:31:15.642Z,74.07
2023-01-06T10:33:48.963Z,73.64
2023-01-06T10:36:18.561Z,73.97
2023-01-06T10:38:51.467Z,74.01
2023-01-06T10:41:43.621Z,73.64
2023-01-06T10:44:12.322Z,74.09
2023-01-06T10:46:41.545Z,73.47
2023-01-06T10:49:16.133Z,73.64
2023-01-06T10:51:49.149Z,73.90
2023-01-06T10:54:23.227Z,72.91
2023-01-06T10:56:56.468Z,72.22
2023-01-06T10:59:23.463Z,72.64
2023-01-06T11:01:57.400Z,71.86
2023-01-06T11:04:27.278Z,71.75
2023-01-06T11:07:02.700Z,71.24
2023-01-06T11:09:42.315Z,70.76
2023-01-06T11:12:20.357Z,71.10
2023-01-06T11:14:58.823Z,71.19
2023-01-06T11:17:26.942Z,71.27
2023-01-06T11:20:27.050Z,71.10
2023-01-06T11:22:54.039Z,70.69
2023-01-06T11:25:20.937Z,70.33
2023-01-06T11:28:08.025Z,70.93
2023-01-06T11:30:43.328Z,72.17
2023-01-06T11:33:25.608Z,72.45
2023-01-06T11:35:53.453Z,72.35
2023-01-06T11:38:22.489Z,71.98
2023-01-06T11:40:51.380Z,70.90
2023-01-06T11:43:29.870Z,72.63
2023-01-06T11:46:00.533Z,73.21
2023-01-06T11:48:37.201Z,71.77
2023-01-06T11:51:06.733Z,72.69
2023-01-06T11:53:34.642Z,72.98
2023-01-06T11:56:20.819Z,72.88
2023-01-06T11:58:56.535Z,72.40
2023-01-06T12:01:41.600Z,72.51
2023-01-06T12:04:24.387Z,72.20
2023-01-06T12:07:15.800Z,72.15
2023-01-06T12:09:47.152Z,71.74
2023-01-06T12:12:23.072Z,73.06
2023-01-06T12:14:50.036Z,70.95
2023-01-06T12:17:38.407Z,71.81
2023-01-06T12:20:14.344Z,71.63
2023-01-06T12:23:00.591Z,70.01
2023-01-06T12:25:40.698Z,69.96
2023-01-06T12:28:25.133Z,69.72
2023-01-06T12:31:12.316Z,69.96
2023-01-06T12:34:14.032Z,70.45
2023-01-06T12:36:47.852Z,70.65
2023-01-06T12:39:23.113Z,71.25
2023-01-06T12:41:58.213Z,71.53
2023-01-06T12:44:46.950Z,71.37
2023-01-06T12:47:13.771Z,72.21
2023-01-06T12:49:48.612Z,71.77
2023-01-06T12:52:24.674Z,71.97
2023-01-06T12:54:54.044Z,71.64
2023-01-06T12:57:33.729Z,71.77
2023-01-06T13:00:25.303Z,71.32
2023-01-06T13:02:52.143Z,72.29
2023-01-06T13:05:37.519Z,72.12
2023-01-06T13:08:16.677Z,72.25
2023-01-06T13:10:48.913Z,72.38
2023-01-06T13:13:41.996Z,71.88
2023-01-06T13:16:24.203Z,73.02
2023-01-06T13:19:01.027Z,72.60
2023-01-06T13:21:30.427Z,72.89
2023-01-06T13:23:57.384Z,73.82
2023-01-06T13:26:38.289Z,73.75
2023-01-06T13:29:05.374Z,73.66
2023-01-06T13:31:53.856Z,74.01
2023-01-06T13:34:36.687Z,74.27
2023-01-06T13:37:22.081Z,74.38
2023-01-06T13:40:01.124Z,74.57
2023-01-06T13:42:45.137Z,75.08
2023-01-06T13:45:20.434Z,75.92
2023-01-06T13:47:50.079Z,75.22
2023-01-06T13:50:20.627Z,75.42
2023-01-06T13:52:48.808Z,75.44
2023-01-06T13:55:30.404Z,75.40
2023-01-06T13:58:17.887Z,75.57
2023-01-06T14:00:44.877Z,76.01
2023-01-06T14:03:22.040Z,75.88
2023-01-06T14:05:51.421Z,75.85
2023-01-06T14:08:20.484Z,75.93
2023-01-06T14:10:54.950Z,76.78
2023-01-06T14:13:34.842Z,77.05
2023-01-06T14:16:11.213Z,77.30
2023-01-06T14:19:05.903Z,77.42
2023-01-06T14:21:33.532Z,77.58
2023-01-06T14:24:06.923Z,77.36
2023-01-06T14:26:55.903Z,77.38
2023-01-06T14:29:43.962Z,77.31
2023-01-06T14:32:19.755Z,76.93
2023-01-06T14:34:56.437Z,76.95
2023-01-06T14:37:41.580Z,76.67
2023-01-06T14:40:23.065Z,76.90
2023-01-06T14:42:51.072Z,77.23
2023-01-06T14:45:23.775Z,76.98
2023-01-06T14:48:16.888Z,77.38
2023-01-06T14:50:49.008Z,77.85
2023-01-06T14:53:35.554Z,77.06
2023-01-06T14:56:03.889Z,77.71
2023-01-06T14:58:33.627Z,77.49
2023-01-06T15:01:01.267Z,77.18
2023-01-06T15:03:29.149Z,77.20
2023-01-06T15:06:29.309Z,77.24
2023-01-06T15:09:11.459Z,77.48
2023-01-06T15:11:41.771Z,77.43
2023-01-06T15:14:47.348Z,77.40
2023-01-06T15:17:14.937Z,77.77
2023-01-06T15:19:46.235Z,78.20
2023-01-06T15:22:20.981Z,79.43
2023-01-06T15:24:49.125Z,79.71
2023-01-06T15:27:18.593Z,80.20
2023-01-06T15:29:54.435Z,80.48
2023-01-06T15:32:24.683Z,81.28
2023-01-06T15:34:52.358Z,82.64
2023-01-06T15:37:23.620Z,84.37
2023-01-06T15:39:51.799Z,84.45
2023-01-06T15:42:24.709Z,83.83
2023-01-06T15:44:57.521Z,83.50
2023-01-06T15:47:32.902Z,83.89
2023-01-06T15:50:06.489Z,83.53
2023-01-06T15:52:48.922Z,83.57
2023-01-06T15:55:35.378Z,83.15
2023-01-06T15:58:08.607Z,83.81
2023-01-06T16:00:48.230Z,84.07
2023-01-06T16:03:24.902Z,84.92
2023-01-06T16:05:57.682Z,84.51
2023-01-06T16:08:29.331Z,84.41
2023-01-06T16:11:17.908Z,85.01
2023-01-06T16:14:00.136Z,84.94
2023-01-06T16:16:38.094Z,85.19
2023-01-06T16:19:16.617Z,85.07
2023-01-06T16:21:44.740Z,85.39
2023-01-06T16:24:22.233Z,85.49
2023-01-06T16:26:58.828Z,85.51
2023-01-06T16:29:28.627Z,85.09
2023-01-06T16:31:56.565Z,85.22
2023-01-06T16:34:28.004Z,85.04
2023-01-06T16:37:00.003Z,85.24
2023-01-06T16:39:28.201Z,85.13
2023-01-06T16:41:57.914Z,84.95
2023-01-06T16:44:32.571Z,84.94
2023-01-06T16:47:01.097Z,85.06
2023-01-06T16:49:30.888Z,85.16
2023-01-06T16:51:57.863Z,85.31
2023-01-06T16:54:24.848Z,85.12
2023-01-06T16:56:52.593Z,84.95
2023-01-06T16:59:22.454Z,84.63
2023-01-06T17:01:49.580Z,83.89
2023-01-06T17:04:16.753Z,83.96
2023-01-06T17:06:45.664Z,83.68
2023-01-06T17:09:23.816Z,83.73
2023-01-06T17:11:53.073Z,83.60
2023-01-06T17:14:23.295Z,83.61
2023-01-06T17:17:18.465Z,83.47
2023-01-06T17:19:45.496Z,83.56
2023-01-06T17:22:31.531Z,83.21
2023-01-06T17:25:02.199Z,83.56
2023-01-06T17:27:32.302Z,84.24
2023-01-06T17:30:01.398Z,84.62
2023-01-06T17:32:39.867Z,84.83
2023-01-06T17:35:20.139Z,85.34
2023-01-06T17:37:47.161Z,84.81
2023-01-06T17:40:19.547Z,85.43
2023-01-06T17:42:55.605Z,86.24
2023-01-06T17:45:27.246Z,87.03
2023-01-06T17:47:54.611Z,87.96
2023-01-06T17:50:29.423Z,88.38
2023-01-06T17:53:38.155Z,88.08
2023-01-06T17:56:09.467Z,88.51
2023-01-06T17:58:39.894Z,89.38
2023-01-06T18:01:21.995Z,89.61
2023-01-06T18:03:50.916Z,90.22
2023-01-06T18:06:42.238Z,90.56
2023-01-06T18:09:16.859Z,91.28
2023-01-06T18:11:51.842Z,91.37
2023-01-06T18:14:25.422Z,91.77
2023-01-06T18:16:54.568Z,92.10
2023-01-06T18:19:34.144Z,92.34
2023-01-06T18:22:10.177Z,91.73
2023-01-06T18:24:40.587Z,92.37
2023-01-06T18:27:16.798Z,92.76
2023-01-06T18:29:45.052Z,93.41
2023-01-06T18:32:20.968Z,93.22
2023-01-06T18:34:56.345Z,93.39
2023-01-06T18:37:29.396Z,94.10
2023-01-06T18:40:01.875Z,94.11
2023-01-06T18:42:41.862Z,94.25
2023-01-06T18:45:08.712Z,94.40
2023-01-06T18:47:37.561Z,94.48
2023-01-06T18:50:29.675Z,94.65
2023-01-06T18:52:58.777Z,94.69
2023-01-06T18:55:36.155Z,94.98
2023-01-06T18:58:11.675Z,94.72
2023-01-06T19:00:42.562Z,94.70
2023-01-06T19:03:28.988Z,94.80
2023-01-06T19:06:07.342Z,94.92
2023-01-06T19:08:37.636Z,94.95
2023-01-06T19:11:14.376Z,95.36
2023-01-06T19:13:42.481Z,95.90
2023-01-06T19:16:29.633Z,96.14
2023-01-06T19:19:08.502Z,96.38
2023-01-06T19:21:36.568Z,96.57
2023-01-06T19:24:28.342Z,96.97
2023-01-06T19:26:58.444Z,96.92
2023-01-06T19:29:28.897Z,96.94
2023-01-06T19:32:04.241Z,97.63
2023-01-06T19:34:32.358Z,97.65
2023-01-06T19:36:59.472Z,97.95
2023-01-06T19:39:39.984Z,98.15
2023-01-06T19:42:17.347Z,98.87
2023-01-06T19:44:44.478Z,99.16
2023-01-06T19:47:35.982Z,99.16
2023-01-06T19:50:23.750Z,98.95
2023-01-06T19:52:58.677Z,99.28
2023-01-06T19:55:30.502Z,98.74
2023-01-06T19:58:20.047Z,98.83
2023-01-06T20:00:49.393Z,98.60
2023-01-06T20:03:37.709Z,98.82
2023-01-06T20:06:05.027Z,98.77
2023-01-06T20:08:31.982Z,99.12
2023-01-06T20:10:59.095Z,98.42
2023-01-06T20:13:26.031Z,98.99
2023-01-06T20:15:52.932Z,98.70
2023-01-06T20:18:19.848Z,99.02
2023-01-06T20:20:46.834Z,99.14
2023-01-06T20:23:14.519Z,99.04
2023-01-06T20:25:41.757Z,99.06
2023-01-06T20:28:08.659Z,99.27
2023-01-06T20:30:35.606Z,99.42
2023-01-06T20:33:02.858Z,100.00
2023-01-06T20:35:29.824Z,99.51
2023-01-06T20:37:56.741Z,99.67
2023-01-06T20:40:23.645Z,99.90
2023-01-06T20:42:50.565Z,99.96
2023-01-06T20:45:17.562Z,100.00
2023-01-06T20:47:44.544Z,100.00
2023-01-06T20:50:13.961Z,100.00
2023-01-06T20:52:43.302Z,100.00
2023-01-06T20:55:11.188Z,100.00
2023-01-06T20:57:39.952Z,100.00
2023-01-06T21:00:10.289Z,100.00
2023-01-06T21:02:37.694Z,100.00
2023-01-06T21:05:08.450Z,100.00
2023-01-06T21:07:37.200Z,100.00
2023-01-06T21:10:06.500Z,100.00
2023-01-06T21:12:35.563Z,100.00
2023-01-06T21:15:05.064Z,100.00
2023-01-06T21:17:34.560Z,100.00
2023-01-06T21:20:03.848Z,100.00
2023-01-06T21:22:33.144Z,100.00
2023-01-06T21:25:00.385Z,100.00
2023-01-06T21:27:27.668Z,100.00
2023-01-06T21:29:56.465Z,100.00
2023-01-06T21:32:25.689Z,100.00
2023-01-06T21:34:54.771Z,100.00
2023-01-06T21:37:23.782Z,100.00
2023-01-06T21:39:51.783Z,100.00
2023-01-06T21:42:39.362Z,100.00
2023-01-06T21:45:08.681Z,100.00
2023-01-06T21:47:37.055Z,100.00
2023-01-06T21:50:06.925Z,100.00
2023-01-06T21:52:36.018Z,100.00
2023-01-06T21:55:04.375Z,100.00
2023-01-06T21:57:33.165Z,100.00
2023-01-06T22:00:02.485Z,100.00
2023-01-06T22:02:29.938Z,100.00
2023-01-06T22:04:57.212Z,100.00
2023-01-06T22:07:24.869Z,100.00
2023-01-06T22:09:53.162Z,100.00
2023-01-06T22:12:20.909Z,100.00
2023-01-06T22:14:51.117Z,100.00
2023-01-06T22:17:19.594Z,100.00
2023-01-06T22:19:47.907Z,100.00
2023-01-06T22:22:17.362Z,100.00
2023-01-06T22:24:47.437Z,100.00
2023-01-06T22:27:16.792Z,100.00
2023-01-06T22:29:46.018Z,100.00
2023-01-06T22:32:15.283Z,100.00
2023-01-06T22:34:45.739Z,100.00
2023-01-06T22:37:14.387Z,100.00
2023-01-06T22:39:44.841Z,100.00
2023-01-06T22:42:11.834Z,100.00
2023-01-06T22:44:41.661Z,100.00
2023-01-06T22:47:08.848Z,100.00
2023-01-06T22:49:35.777Z,100.00
2023-01-06T22:52:04.192Z,100.00
2023-01-06T22:54:31.780Z,100.00
2023-01-06T22:57:00.395Z,100.00
2023-01-06T22:59:29.698Z,100.00
2023-01-06T23:01:59.270Z,100.00
2023-01-06T23:04:28.585Z,100.00
2023-01-06T23:06:55.728Z,100.00
2023-01-06T23:09:25.136Z,100.00
2023-01-06T23:11:54.404Z,100.00
2023-01-06T23:14:23.889Z,100.00
2023-01-06T23:16:53.146Z,100.00
2023-01-06T23:19:20.293Z,100.00
2023-01-06T23:21:47.336Z,100.00
2023-01-06T23:24:14.339Z,100.00
2023-01-06T23:26:46.906Z,100.00
2023-01-06T23:29:16.174Z,100.00
2023-01-06T23:31:47.956Z,100.00
2023-01-06T23:34:19.092Z,100.00
2023-01-06T23:36:50.713Z,100.00
2023-01-06T23:39:18.154Z,100.00
2023-01-06T23:41:47.148Z,100.00
2023-01-06T23:44:18.956Z,100.00
2023-01-06T23:46:46.339Z,100.00
2023-01-06T23:49:17.141Z,100.00
2023-01-06T23:51:45.286Z,100.00
2023-01-06T23:54:12.887Z,100.00
2023-01-06T23:56:40.241Z,100.00
2023-01-06T23:59:08.512Z,100.00
